createdAt,value
2018-12-24T00:02:28.040Z,24.10
2018-12-24T00:05:15.811Z,24.20
2018-12-24T00:08:03.619Z,24.20
2018-12-24T00:10:51.379Z,24.10
2018-12-24T00:13:39.236Z,24.10
2018-12-24T00:16:27.031Z,24.10
2018-12-24T00:19:14.799Z,24.10
2018-12-24T00:22:02.624Z,24.10
2018-12-24T00:24:50.387Z,24.10
2018-12-24T00:27:38.234Z,24.10
2018-12-24T00:30:26.011Z,24.10
2018-12-24T00:33:13.794Z,24.10
2018-12-24T00:36:01.569Z,24.10
2018-12-24T00:38:49.350Z,24.10
2018-12-24T00:41:37.495Z,24.10
2018-12-24T00:44:25.355Z,24.10
2018-12-24T00:47:13.395Z,24.10
2018-12-24T00:49:54.630Z,24.10
2018-12-24T00:52:35.550Z,24.10
2018-12-24T00:55:16.654Z,24.10
2018-12-24T00:57:56.937Z,24.10
2018-12-24T01:00:37.963Z,24.10
2018-12-24T01:03:19.247Z,24.00
2018-12-24T01:06:00.626Z,24.00
2018-12-24T01:08:41.610Z,24.00
2018-12-24T01:11:22.118Z,24.00
2018-12-24T01:14:02.774Z,24.00
2018-12-24T01:16:43.608Z,24.00
2018-12-24T01:19:25.334Z,24.00
2018-12-24T01:22:13.166Z,24.00
2018-12-24T01:25:00.949Z,24.00
2018-12-24T01:27:48.739Z,24.00
2018-12-24T01:30:36.508Z,24.00
2018-12-24T01:33:24.287Z,24.00
2018-12-24T01:36:12.056Z,24.00
2018-12-24T01:39:00.227Z,24.00
2018-12-24T01:41:48.358Z,23.90
2018-12-24T01:44:36.469Z,23.90
2018-12-24T01:47:24.268Z,23.90
2018-12-24T01:50:04.836Z,23.80
2018-12-24T01:52:46.044Z,23.80
2018-12-24T01:55:27.444Z,23.80
2018-12-24T01:58:08.206Z,23.80
2018-12-24T02:00:49.365Z,23.80
2018-12-24T02:03:30.572Z,23.80
2018-12-24T02:06:11.859Z,23.80
2018-12-24T02:08:50.597Z,23.70
2018-12-24T02:11:38.750Z,23.80
2018-12-24T02:14:26.878Z,23.80
2018-12-24T02:17:14.664Z,23.80
2018-12-24T02:20:02.453Z,23.80
2018-12-24T02:22:50.219Z,23.80
2018-12-24T02:25:38.339Z,23.80
2018-12-24T02:28:26.116Z,23.80
2018-12-24T02:31:14.215Z,23.80
2018-12-24T02:34:02.005Z,23.80
2018-12-24T02:36:50.079Z,23.80
2018-12-24T02:39:37.883Z,23.80
2018-12-24T02:42:27.367Z,23.80
2018-12-24T02:45:15.142Z,23.80
2018-12-24T02:48:03.278Z,23.80
2018-12-24T02:50:44.126Z,23.80
2018-12-24T02:53:24.794Z,23.80
2018-12-24T02:56:05.940Z,23.70
2018-12-24T02:58:46.491Z,23.80
2018-12-24T03:01:27.174Z,23.80
2018-12-24T03:04:08.380Z,23.70
2018-12-24T03:06:48.733Z,23.70
2018-12-24T03:09:29.100Z,23.70
2018-12-24T03:12:09.816Z,23.70
2018-12-24T03:14:50.162Z,23.70
2018-12-24T03:17:30.748Z,23.70
2018-12-24T03:20:11.976Z,23.70
2018-12-24T03:22:53.123Z,23.70
2018-12-24T03:25:33.899Z,23.70
2018-12-24T03:28:14.817Z,23.70
2018-12-24T03:30:55.601Z,23.70
2018-12-24T03:33:35.989Z,23.70
2018-12-24T03:36:16.955Z,23.70
2018-12-24T03:38:57.684Z,23.70
2018-12-24T03:41:38.812Z,23.70
2018-12-24T03:44:19.112Z,23.70
2018-12-24T03:46:59.519Z,23.80
2018-12-24T03:49:39.749Z,23.70
2018-12-24T03:52:20.839Z,23.70
2018-12-24T03:55:01.777Z,23.70
2018-12-24T03:57:43.101Z,23.80
2018-12-24T04:00:21.810Z,23.70
2018-12-24T04:03:09.587Z,23.70
2018-12-24T04:05:57.721Z,23.70
2018-12-24T04:08:45.740Z,23.70
2018-12-24T04:11:33.523Z,23.70
2018-12-24T04:14:21.626Z,23.70
2018-12-24T04:17:09.403Z,23.70
2018-12-24T04:19:57.193Z,23.70
2018-12-24T04:22:44.969Z,23.70
2018-12-24T04:25:33.074Z,23.70
2018-12-24T04:28:20.878Z,23.70
2018-12-24T04:36:44.078Z,23.90
2018-12-24T04:39:31.871Z,23.80
2018-12-24T04:42:19.738Z,23.80
2018-12-24T04:45:07.528Z,23.70
2018-12-24T04:47:57.040Z,23.70
2018-12-24T04:50:37.613Z,23.70
2018-12-24T04:53:18.244Z,23.70
2018-12-24T04:55:59.022Z,23.70
2018-12-24T12:53:23.578Z,23.80
2018-12-24T12:55:51.809Z,23.80
2018-12-24T12:58:20.626Z,23.80
2018-12-24T13:00:48.880Z,23.80
2018-12-24T13:03:17.117Z,23.80
2018-12-24T13:05:45.354Z,23.80
2018-12-24T13:08:13.597Z,23.90
2018-12-24T13:10:41.830Z,23.90
2018-12-24T13:13:10.093Z,24.00
2018-12-24T13:15:38.340Z,24.00
2018-12-24T13:18:06.821Z,24.00
2018-12-24T13:20:35.165Z,24.00
2018-12-24T13:23:03.433Z,24.10
2018-12-24T13:25:31.653Z,24.10
2018-12-24T13:27:59.898Z,24.10
2018-12-24T13:30:28.821Z,24.10
2018-12-24T13:32:57.096Z,24.10
2018-12-24T13:35:25.329Z,24.20
2018-12-24T13:37:53.565Z,24.20
2018-12-24T13:40:21.809Z,24.20
2018-12-24T13:42:50.049Z,24.20
2018-12-24T13:45:18.305Z,24.20
2018-12-24T13:47:46.533Z,24.20
2018-12-24T13:50:14.796Z,24.20
2018-12-24T13:52:43.026Z,24.20
2018-12-24T13:55:11.270Z,24.20
2018-12-24T13:57:39.505Z,24.10
2018-12-24T14:00:07.750Z,24.10
2018-12-24T14:02:35.981Z,24.10
2018-12-24T14:05:04.244Z,24.10
2018-12-24T14:07:32.475Z,24.10
2018-12-24T14:10:00.719Z,24.10
2018-12-24T14:12:28.968Z,24.10
2018-12-24T14:14:57.209Z,24.10
2018-12-24T14:17:25.446Z,24.10
2018-12-24T14:19:53.714Z,24.10
2018-12-24T14:22:22.257Z,24.00
2018-12-24T14:24:50.509Z,24.10
2018-12-24T14:27:18.741Z,24.10
2018-12-24T14:29:47.154Z,24.00
2018-12-24T14:32:15.445Z,24.00
2018-12-24T14:34:43.677Z,24.00
2018-12-24T14:37:11.934Z,24.00
2018-12-24T14:39:40.183Z,24.10
2018-12-24T14:42:08.421Z,24.10
2018-12-24T14:44:36.656Z,24.10
2018-12-24T14:47:04.909Z,24.20
2018-12-24T14:49:33.142Z,24.20
2018-12-24T14:52:01.389Z,24.30
2018-12-24T14:54:29.657Z,24.30
2018-12-24T14:56:57.911Z,24.30
2018-12-24T14:59:26.146Z,24.30
2018-12-24T15:01:54.398Z,24.40
2018-12-24T15:04:22.641Z,24.40
2018-12-24T15:06:51.461Z,24.50
2018-12-24T15:09:19.703Z,24.50
2018-12-24T15:11:47.955Z,24.50
2018-12-24T15:14:16.209Z,24.50
2018-12-24T15:16:44.453Z,24.60
2018-12-24T15:19:12.697Z,24.60
2018-12-24T15:21:40.937Z,24.60
2018-12-24T15:24:09.173Z,24.60
2018-12-24T15:26:37.430Z,24.60
2018-12-24T15:29:05.685Z,24.60
2018-12-24T15:31:33.925Z,24.60
2018-12-24T15:34:02.161Z,24.60
2018-12-24T15:36:32.201Z,24.70
2018-12-24T15:39:00.412Z,24.70
2018-12-24T15:41:28.670Z,24.70
2018-12-24T15:43:57.477Z,24.70
2018-12-24T15:46:25.712Z,24.70
2018-12-24T15:48:53.962Z,24.70
2018-12-24T15:51:22.205Z,24.70
2018-12-24T15:53:50.446Z,24.70
2018-12-24T15:56:18.704Z,24.80
2018-12-24T15:58:46.943Z,24.80
2018-12-24T16:01:15.181Z,24.80
2018-12-24T16:03:43.420Z,24.80
2018-12-24T16:06:11.659Z,24.80
2018-12-24T16:08:39.937Z,24.80
2018-12-24T16:11:08.166Z,24.80
2018-12-24T16:13:36.433Z,24.90
2018-12-24T16:16:04.685Z,24.80
2018-12-24T16:18:33.010Z,24.90
2018-12-24T16:21:01.241Z,24.90
2018-12-24T16:23:29.680Z,24.90
2018-12-24T16:25:57.905Z,24.90
2018-12-24T16:28:26.149Z,24.90
2018-12-24T16:30:54.386Z,24.90
2018-12-24T16:33:22.665Z,24.90
2018-12-24T16:35:50.895Z,24.90
2018-12-24T16:38:19.141Z,24.90
2018-12-24T16:40:47.376Z,24.90
2018-12-24T16:43:15.629Z,24.90
2018-12-24T16:45:43.859Z,24.90
2018-12-24T16:48:12.097Z,24.90
2018-12-24T16:50:40.352Z,24.90
2018-12-24T16:53:08.594Z,24.90
2018-12-24T16:55:36.825Z,24.90
2018-12-24T16:58:05.058Z,24.90
2018-12-24T17:00:33.305Z,24.90
2018-12-24T17:03:01.561Z,24.90
2018-12-24T17:05:29.822Z,24.90
2018-12-24T17:07:58.069Z,24.90
2018-12-24T17:10:26.314Z,24.90
2018-12-24T17:12:54.548Z,24.90
2018-12-24T17:15:22.801Z,24.90
2018-12-24T17:17:51.047Z,24.90
2018-12-24T17:20:19.309Z,24.90
2018-12-24T17:22:47.541Z,24.90
2018-12-24T17:25:15.791Z,24.90
2018-12-24T17:27:44.033Z,24.90
2018-12-24T17:30:12.274Z,24.90
2018-12-24T17:32:40.513Z,24.80
2018-12-24T17:35:08.780Z,24.90
2018-12-24T17:37:37.017Z,24.80
2018-12-24T17:40:06.307Z,24.80
2018-12-24T17:42:34.537Z,24.80
2018-12-24T17:45:04.132Z,24.80
2018-12-24T17:47:32.657Z,24.80
2018-12-24T17:50:00.913Z,24.80
2018-12-24T17:52:29.178Z,24.80
2018-12-24T17:54:57.417Z,24.80
2018-12-24T17:57:25.660Z,24.80
2018-12-24T17:59:53.901Z,24.80
2018-12-24T18:02:22.165Z,24.90
2018-12-24T18:04:50.394Z,24.80
2018-12-24T18:07:18.660Z,24.80
2018-12-24T18:09:46.911Z,24.80
2018-12-24T18:12:15.170Z,24.80
2018-12-24T18:14:43.466Z,24.80
2018-12-24T18:17:11.710Z,24.80
2018-12-24T18:19:59.374Z,24.80
2018-12-24T18:22:27.627Z,24.80
2018-12-24T18:24:55.873Z,24.80
2018-12-24T18:27:24.109Z,24.80
2018-12-24T18:29:52.341Z,24.80
2018-12-24T18:32:20.586Z,24.80
2018-12-24T18:34:48.841Z,24.80
2018-12-24T18:37:17.084Z,24.80
2018-12-24T18:39:47.110Z,24.80
2018-12-24T18:42:15.317Z,24.80
2018-12-24T18:44:43.542Z,24.70
2018-12-24T18:47:11.810Z,24.80
2018-12-24T18:49:40.037Z,24.80
2018-12-24T18:52:08.274Z,24.80
2018-12-24T18:54:36.516Z,24.80
2018-12-24T18:57:04.749Z,24.80
2018-12-24T18:59:33.006Z,24.80
2018-12-24T19:02:01.239Z,24.80
2018-12-24T19:04:29.739Z,24.80
2018-12-24T19:06:57.984Z,24.80
2018-12-24T19:09:26.226Z,24.90
2018-12-24T19:11:54.485Z,24.80
2018-12-24T19:14:22.726Z,24.90
2018-12-24T19:16:50.961Z,24.90
2018-12-24T19:19:19.494Z,24.90
2018-12-24T19:21:47.725Z,24.90
2018-12-24T19:24:15.974Z,24.90
2018-12-24T19:26:44.206Z,25.00
2018-12-24T19:29:12.458Z,25.00
2018-12-24T19:31:41.261Z,25.10
2018-12-24T19:34:11.246Z,25.10
2018-12-24T19:36:39.466Z,25.10
2018-12-24T19:39:07.881Z,25.10
2018-12-24T19:41:36.118Z,25.10
2018-12-24T19:44:04.365Z,25.10
2018-12-24T19:46:32.602Z,25.10
2018-12-24T19:49:00.851Z,25.10
2018-12-24T19:51:29.090Z,25.10
2018-12-24T19:53:57.333Z,25.20
2018-12-24T19:56:25.574Z,25.20
2018-12-24T19:58:53.838Z,25.20
2018-12-24T20:01:22.073Z,25.10
2018-12-24T20:03:50.309Z,25.10
2018-12-24T20:06:18.576Z,25.20
2018-12-24T20:08:46.828Z,25.20
2018-12-24T20:11:15.070Z,25.20
2018-12-24T20:13:43.892Z,25.20
2018-12-24T20:16:12.129Z,25.10
2018-12-24T20:18:40.364Z,25.10
2018-12-24T20:21:08.614Z,25.10
2018-12-24T20:23:36.849Z,25.10
2018-12-24T20:26:05.117Z,25.10
2018-12-24T20:28:33.372Z,25.10
2018-12-24T20:31:01.621Z,25.10
2018-12-24T20:33:29.854Z,25.00
2018-12-24T20:35:58.101Z,25.00
2018-12-24T20:38:26.360Z,25.00
2018-12-24T20:40:54.612Z,25.00
2018-12-24T20:43:22.859Z,24.90
2018-12-24T20:45:51.125Z,24.90
2018-12-24T20:48:19.380Z,24.90
2018-12-24T20:50:47.635Z,24.90
2018-12-24T20:53:15.877Z,24.90
2018-12-24T20:55:44.130Z,24.90
2018-12-24T20:58:12.386Z,24.90
2018-12-24T21:00:40.674Z,24.90
2018-12-24T21:03:08.909Z,24.90
2018-12-24T21:05:37.164Z,24.90
2018-12-24T21:08:05.433Z,24.90
2018-12-24T21:10:33.671Z,24.90
2018-12-24T21:13:01.955Z,24.90
2018-12-24T21:15:30.191Z,24.90
2018-12-24T21:17:58.442Z,24.90
2018-12-24T21:20:26.681Z,24.90
2018-12-24T21:22:55.004Z,24.90
2018-12-24T21:25:23.346Z,24.90
2018-12-24T21:27:51.613Z,24.90
2018-12-24T21:30:19.858Z,24.90
2018-12-24T21:32:48.123Z,24.90
2018-12-24T21:35:16.350Z,24.90
2018-12-24T21:37:44.601Z,24.90
2018-12-24T21:40:12.846Z,24.90
2018-12-24T21:42:41.123Z,24.90
2018-12-24T21:45:09.383Z,24.90
2018-12-24T21:47:37.641Z,24.90
2018-12-24T21:50:05.882Z,24.90
2018-12-24T21:52:34.123Z,24.90
2018-12-24T21:55:02.677Z,24.90
2018-12-24T21:57:30.915Z,24.90
2018-12-24T21:59:59.165Z,24.90
2018-12-24T22:02:27.518Z,24.90
2018-12-24T22:04:55.766Z,24.90
2018-12-24T22:07:24.009Z,24.90
2018-12-24T22:09:52.289Z,24.90
2018-12-24T22:12:20.521Z,24.90
2018-12-24T22:14:48.775Z,24.90
2018-12-24T22:17:17.021Z,24.90
2018-12-24T22:19:45.266Z,24.90
2018-12-24T22:22:13.508Z,24.90
2018-12-24T22:24:41.779Z,24.90
2018-12-24T22:27:10.022Z,24.90
2018-12-24T22:29:38.309Z,25.10
2018-12-24T22:32:06.625Z,25.10
2018-12-24T22:34:34.881Z,25.10
2018-12-24T22:37:03.113Z,25.10
2018-12-24T22:39:31.362Z,25.00
2018-12-24T22:41:59.769Z,25.00
2018-12-24T22:44:28.013Z,24.90
2018-12-24T22:46:56.257Z,24.80
2018-12-24T22:49:24.501Z,24.80
2018-12-24T22:51:52.739Z,24.80
2018-12-24T22:54:20.974Z,24.80
2018-12-24T22:56:49.291Z,24.80
2018-12-24T22:59:17.529Z,24.80
2018-12-24T23:01:45.778Z,24.80
2018-12-24T23:04:14.023Z,24.80
2018-12-24T23:06:42.278Z,24.80
2018-12-24T23:09:10.505Z,24.80
2018-12-24T23:11:38.762Z,24.80
2018-12-24T23:14:07.016Z,24.80
2018-12-24T23:16:35.257Z,24.80
2018-12-24T23:19:03.533Z,24.80
2018-12-24T23:21:31.778Z,24.70
2018-12-24T23:24:00.009Z,24.70
2018-12-24T23:26:28.249Z,24.60
2018-12-24T23:28:56.481Z,24.60
2018-12-24T23:31:24.748Z,24.60
2018-12-24T23:33:52.973Z,24.60
2018-12-24T23:36:21.218Z,24.50
2018-12-24T23:38:49.453Z,24.50
2018-12-24T23:41:17.702Z,24.50
2018-12-24T23:43:46.077Z,24.50
2018-12-24T23:46:14.397Z,24.50
2018-12-24T23:48:42.629Z,24.50
2018-12-24T23:51:10.880Z,24.40
2018-12-24T23:53:39.678Z,24.40
2018-12-24T23:56:07.926Z,24.40
2018-12-24T23:58:36.158Z,24.40
